createdAt,value
2017-11-01T00:02:18.980Z,19.75
2017-11-01T00:04:47.191Z,21.35
2017-11-01T00:07:13.901Z,18.70
2017-11-01T00:09:40.640Z,22.40
2017-11-01T00:12:07.383Z,19.33
2017-11-01T00:14:34.210Z,20.88
2017-11-01T00:17:00.970Z,19.33
2017-11-01T00:19:27.774Z,20.60
2017-11-01T00:21:55.360Z,18.00
2017-11-01T00:24:22.196Z,19.67
2017-11-01T00:26:48.938Z,21.20
2017-11-01T00:29:16.175Z,19.10
2017-11-01T00:31:42.975Z,17.67
2017-11-01T00:34:09.719Z,18.42
2017-11-01T00:36:36.451Z,18.73
2017-11-01T00:39:03.204Z,19.27
2017-11-01T00:41:29.918Z,21.80
2017-11-01T00:43:56.698Z,19.42
2017-11-01T00:46:23.447Z,18.65
2017-11-01T00:48:50.314Z,19.25
2017-11-01T00:51:17.051Z,16.80
2017-11-01T00:53:44.057Z,20.33
2017-11-01T00:56:10.926Z,17.17
2017-11-01T00:58:37.675Z,17.42
2017-11-01T01:01:04.483Z,19.35
2017-11-01T01:03:31.257Z,17.55
2017-11-01T01:05:58.047Z,17.65
2017-11-01T01:08:24.810Z,19.00
2017-11-01T01:10:51.552Z,16.35
2017-11-01T01:13:18.285Z,19.35
2017-11-01T01:15:45.832Z,17.75
2017-11-01T01:18:12.642Z,18.67
2017-11-01T01:20:39.431Z,17.33
2017-11-01T01:23:06.212Z,16.95
2017-11-01T01:25:33.811Z,18.45
2017-11-01T01:28:01.424Z,19.02
2017-11-01T01:30:28.166Z,18.48
2017-11-01T01:32:59.255Z,19.12
2017-11-01T01:35:25.975Z,17.90
2017-11-01T01:37:52.720Z,20.88
2017-11-01T01:40:19.820Z,18.80
2017-11-01T01:42:46.551Z,16.75
2017-11-01T01:45:15.155Z,18.12
2017-11-01T01:47:41.892Z,18.02
2017-11-01T01:50:08.969Z,19.35
2017-11-01T01:52:35.767Z,17.90
2017-11-01T01:55:02.514Z,17.30
2017-11-01T01:57:29.239Z,17.40
2017-11-01T01:59:55.995Z,18.52
2017-11-01T02:02:22.723Z,20.20
2017-11-01T02:04:49.443Z,19.50
2017-11-01T02:07:16.187Z,22.58
2017-11-01T02:09:45.740Z,21.92
2017-11-01T02:12:12.460Z,20.30
2017-11-01T02:14:39.268Z,23.00
2017-11-01T02:17:06.003Z,22.60
2017-11-01T02:19:34.500Z,22.92
2017-11-01T02:22:01.256Z,22.65
2017-11-01T02:24:27.983Z,21.08
2017-11-01T02:26:54.768Z,23.27
2017-11-01T02:29:21.638Z,23.95
2017-11-01T02:31:48.856Z,24.12
2017-11-01T02:34:15.583Z,23.65
2017-11-01T02:36:42.435Z,26.37
2017-11-01T02:39:09.194Z,25.50
2017-11-01T02:41:35.965Z,28.42
2017-11-01T02:44:02.723Z,28.23
2017-11-01T02:46:29.482Z,23.73
2017-11-01T02:48:56.246Z,26.45
2017-11-01T02:51:23.059Z,24.98
2017-11-01T02:53:49.792Z,30.00
2017-11-01T02:56:16.556Z,28.55
2017-11-01T02:58:44.099Z,30.10
2017-11-01T03:01:10.862Z,28.90
2017-11-01T03:03:39.121Z,31.90
2017-11-01T03:06:05.937Z,33.15
2017-11-01T03:08:32.696Z,30.90
2017-11-01T03:10:59.439Z,32.08
2017-11-01T03:13:26.300Z,32.55
2017-11-01T03:15:53.235Z,31.35
2017-11-01T03:18:19.966Z,35.60
2017-11-01T03:20:46.715Z,31.08
2017-11-01T03:23:13.555Z,32.03
2017-11-01T03:25:40.396Z,31.20
2017-11-01T03:28:07.195Z,37.80
2017-11-01T03:30:33.967Z,34.10
2017-11-01T03:33:00.702Z,31.92
2017-11-01T03:35:28.387Z,32.03
2017-11-01T03:37:55.151Z,33.40
2017-11-01T03:40:21.942Z,28.65
2017-11-01T03:42:49.439Z,32.22
2017-11-01T03:45:16.911Z,33.08
2017-11-01T03:47:43.662Z,31.77
2017-11-01T03:50:11.719Z,33.97
2017-11-01T03:52:38.461Z,31.45
2017-11-01T03:55:05.210Z,32.95
2017-11-01T03:57:31.966Z,31.48
2017-11-01T03:59:58.670Z,38.22
2017-11-01T04:02:25.415Z,36.88
2017-11-01T04:04:52.183Z,37.13
2017-11-01T04:07:18.927Z,34.35
2017-11-01T04:09:45.711Z,34.25
2017-11-01T04:12:12.515Z,33.70
2017-11-01T04:14:39.255Z,36.45
2017-11-01T04:17:05.987Z,31.12
2017-11-01T04:19:39.375Z,31.40
2017-11-01T04:22:06.103Z,32.95
2017-11-01T04:24:32.866Z,32.53
2017-11-01T04:26:59.605Z,35.40
2017-11-01T04:29:26.335Z,32.15
2017-11-01T04:31:53.091Z,30.15
2017-11-01T04:34:20.590Z,30.40
2017-11-01T04:36:47.698Z,34.38
2017-11-01T04:39:14.438Z,32.53
2017-11-01T04:41:41.186Z,32.67
2017-11-01T04:44:07.910Z,32.45
2017-11-01T04:46:34.670Z,31.17
2017-11-01T04:49:04.361Z,33.70
2017-11-01T04:51:31.096Z,33.25
2017-11-01T04:53:57.827Z,32.63
2017-11-01T04:56:24.588Z,33.20
2017-11-01T04:58:51.318Z,33.55
2017-11-01T05:01:18.870Z,31.48
2017-11-01T05:03:45.617Z,35.47
2017-11-01T05:06:12.355Z,32.95
2017-11-01T05:08:41.890Z,32.88
2017-11-01T05:11:09.862Z,34.95
2017-11-01T05:13:44.022Z,31.85
2017-11-01T05:16:10.759Z,35.15
2017-11-01T05:18:37.484Z,35.30
2017-11-01T05:21:05.851Z,32.33
2017-11-01T05:23:36.111Z,35.55
2017-11-01T05:26:07.726Z,34.80
2017-11-01T05:28:34.479Z,36.90
2017-11-01T05:31:01.239Z,36.17
2017-11-01T05:33:27.975Z,37.97
2017-11-01T05:35:54.718Z,37.03
2017-11-01T05:38:21.442Z,36.03
2017-11-01T05:40:48.183Z,38.17
2017-11-01T05:43:14.931Z,38.72
2017-11-01T05:45:43.364Z,40.50
2017-11-01T05:48:13.635Z,37.60
2017-11-01T05:50:40.378Z,40.22
2017-11-01T05:53:08.903Z,41.08
2017-11-01T05:55:35.624Z,41.10
2017-11-01T05:58:02.374Z,41.20
2017-11-01T06:00:29.123Z,39.90
2017-11-01T06:02:55.854Z,44.38
2017-11-01T06:05:22.599Z,44.15
2017-11-01T06:07:51.091Z,44.67
2017-11-01T06:10:17.814Z,44.58
2017-11-01T06:12:46.390Z,43.72
2017-11-01T06:15:16.091Z,42.17
2017-11-01T06:17:45.622Z,46.42
2017-11-01T06:20:12.381Z,46.88
2017-11-01T06:22:40.748Z,40.00
2017-11-01T06:27:41.811Z,45.20
2017-11-01T06:30:08.543Z,44.63
2017-11-01T06:32:35.271Z,43.92
2017-11-01T06:37:33.011Z,43.90
2017-11-01T06:40:01.147Z,45.88
2017-11-01T06:42:27.911Z,48.63
2017-11-01T06:44:54.886Z,45.42
2017-11-01T06:47:21.614Z,47.80
2017-11-01T06:49:51.181Z,46.53
2017-11-01T06:52:18.391Z,44.13
2017-11-01T06:54:45.118Z,47.30
2017-11-01T06:57:11.875Z,44.90
2017-11-01T06:59:39.454Z,46.45
2017-11-01T07:02:08.442Z,45.25
2017-11-01T07:04:35.195Z,45.65
2017-11-01T07:07:02.755Z,45.30
2017-11-01T07:09:29.495Z,44.83
2017-11-01T07:11:57.867Z,46.70
2017-11-01T07:14:26.207Z,45.12
2017-11-01T07:16:53.170Z,44.90
2017-11-01T07:19:19.940Z,45.00
2017-11-01T07:21:46.678Z,44.30
2017-11-01T07:24:13.427Z,48.58
2017-11-01T07:26:40.266Z,54.33
2017-11-01T07:29:06.994Z,47.35
2017-11-01T07:31:33.733Z,42.90
2017-11-01T07:34:01.396Z,51.35
2017-11-01T07:36:28.160Z,48.25
2017-11-01T07:38:55.353Z,48.92
2017-11-01T07:41:22.110Z,49.10
2017-11-01T07:43:48.872Z,45.10
2017-11-01T07:46:17.231Z,49.20
2017-11-01T07:48:44.934Z,49.55
2017-11-01T07:51:13.435Z,53.05
2017-11-01T07:53:40.186Z,48.83
2017-11-01T07:56:06.910Z,47.45
2017-11-01T07:58:33.883Z,48.95
2017-11-01T08:01:00.622Z,43.63
2017-11-01T08:03:27.384Z,47.42
2017-11-01T08:05:55.760Z,46.35
2017-11-01T08:08:23.307Z,46.83
2017-11-01T08:10:50.046Z,49.08
2017-11-01T08:13:18.682Z,50.67
2017-11-01T08:15:47.142Z,49.25
2017-11-01T08:18:13.886Z,48.72
2017-11-01T08:20:40.622Z,46.37
2017-11-01T08:23:07.364Z,46.97
2017-11-01T08:25:34.102Z,43.67
2017-11-01T08:28:01.119Z,48.45
2017-11-01T08:30:27.859Z,46.92
2017-11-01T08:32:54.587Z,45.60
2017-11-01T08:35:21.804Z,47.83
2017-11-01T08:37:48.514Z,43.40
2017-11-01T08:40:15.239Z,42.25
2017-11-01T08:42:41.974Z,44.78
2017-11-01T08:45:10.488Z,45.33
2017-11-01T08:47:37.227Z,43.40
2017-11-01T08:50:04.352Z,40.30
2017-11-01T08:52:31.083Z,43.47
2017-11-01T08:54:57.806Z,42.53
2017-11-01T08:57:24.560Z,43.47
2017-11-01T08:59:52.576Z,45.15
2017-11-01T09:02:19.299Z,44.05
2017-11-01T09:04:47.680Z,46.22
2017-11-01T09:07:14.406Z,42.67
2017-11-01T09:09:41.847Z,46.63
2017-11-01T09:14:53.807Z,41.53
2017-11-01T09:17:20.529Z,46.47
2017-11-01T09:19:47.251Z,43.15
2017-11-01T09:22:13.991Z,43.60
2017-11-01T09:24:40.733Z,45.47
2017-11-01T09:27:07.448Z,46.80
2017-11-01T09:29:34.191Z,41.95
2017-11-01T09:32:00.915Z,43.42
2017-11-01T09:34:27.643Z,41.75
2017-11-01T09:36:56.231Z,43.95
2017-11-01T09:39:22.954Z,45.15
2017-11-01T09:41:49.679Z,39.42
2017-11-01T09:44:16.418Z,42.38
2017-11-01T09:46:43.155Z,41.55
2017-11-01T09:49:10.499Z,37.55
2017-11-01T09:51:37.238Z,36.00
2017-11-01T09:54:03.966Z,39.92
2017-11-01T09:56:30.699Z,38.08
2017-11-01T09:58:59.064Z,38.45
2017-11-01T10:01:27.520Z,39.10
2017-11-01T10:03:54.963Z,36.42
2017-11-01T10:06:21.703Z,37.72
2017-11-01T10:08:48.441Z,38.17
2017-11-01T10:11:15.162Z,37.08
2017-11-01T10:13:41.910Z,40.25
2017-11-01T10:16:08.640Z,37.45
2017-11-01T10:18:35.367Z,36.95
2017-11-01T10:21:02.127Z,34.50
2017-11-01T10:23:30.492Z,37.35
2017-11-01T10:25:57.232Z,33.17
2017-11-01T10:28:24.006Z,33.15
2017-11-01T10:30:50.723Z,34.80
2017-11-01T10:33:17.451Z,36.13
2017-11-01T10:35:44.193Z,33.63
2017-11-01T10:38:10.911Z,31.17
2017-11-01T10:40:38.202Z,34.42
2017-11-01T10:43:04.958Z,34.53
2017-11-01T10:45:31.679Z,35.58
2017-11-01T10:48:59.403Z,32.60
2017-11-01T10:51:26.143Z,32.60
2017-11-01T10:56:53.214Z,32.20
2017-11-01T10:59:25.495Z,31.10
2017-11-01T11:06:57.366Z,31.48
2017-11-01T11:09:25.733Z,29.95
2017-11-01T11:11:52.470Z,30.30
2017-11-01T11:14:19.231Z,30.90
2017-11-01T11:16:47.609Z,29.55
2017-11-01T11:19:14.363Z,30.25
2017-11-01T11:21:44.043Z,30.12
2017-11-01T11:24:10.767Z,30.50
2017-11-01T11:26:37.518Z,28.15
2017-11-01T11:29:05.934Z,29.85
2017-11-01T11:34:05.948Z,30.62
2017-11-01T11:39:03.739Z,27.25
2017-11-01T11:41:32.942Z,27.00
2017-11-01T11:43:59.678Z,26.05
2017-11-01T11:46:26.408Z,25.30
2017-11-01T11:48:53.183Z,24.55
2017-11-01T11:51:19.927Z,26.92
2017-11-01T11:53:47.306Z,25.17
2017-11-01T11:56:15.938Z,23.65
2017-11-01T11:58:46.039Z,24.33
2017-11-01T12:01:15.292Z,23.58
2017-11-01T12:03:42.034Z,26.25
2017-11-01T12:06:17.004Z,22.67
2017-11-01T12:08:45.475Z,23.25
2017-11-01T12:11:12.223Z,23.77
2017-11-01T12:13:39.980Z,22.35
2017-11-01T12:16:06.731Z,21.92
2017-11-01T12:21:12.089Z,22.05
2017-11-01T12:23:38.831Z,20.35
2017-11-01T12:26:13.683Z,21.58
2017-11-01T12:28:40.406Z,20.20
2017-11-01T12:31:12.643Z,22.02
2017-11-01T12:33:39.391Z,20.37
2017-11-01T12:36:07.755Z,19.17
2017-11-01T12:38:34.501Z,19.65
2017-11-01T12:43:38.204Z,18.95
2017-11-01T12:46:09.282Z,18.98
2017-11-01T12:48:36.015Z,22.10
2017-11-01T12:51:02.759Z,18.70
2017-11-01T12:53:29.486Z,16.70
2017-11-01T12:55:57.203Z,20.42
2017-11-01T12:58:23.938Z,19.77
2017-11-01T13:00:50.677Z,16.77
2017-11-01T13:03:17.402Z,17.70
2017-11-01T13:05:44.156Z,17.12
2017-11-01T13:08:10.903Z,19.45
2017-11-01T13:10:37.623Z,16.98
2017-11-01T13:15:35.351Z,19.12
2017-11-01T13:18:02.079Z,16.42
2017-11-01T13:20:28.823Z,15.43
2017-11-01T13:22:55.549Z,15.40
2017-11-01T13:25:22.275Z,16.48
2017-11-01T13:27:49.011Z,15.35
2017-11-01T13:30:19.304Z,14.87
2017-11-01T13:32:46.026Z,14.65
2017-11-01T13:35:12.771Z,13.80
2017-11-01T13:37:39.724Z,14.13
2017-11-01T13:40:07.171Z,14.05
2017-11-01T13:42:33.930Z,12.80
2017-11-01T13:45:00.644Z,12.77
2017-11-01T13:47:27.366Z,12.95
2017-11-01T13:49:54.114Z,13.80
2017-11-01T13:52:21.304Z,13.90
2017-11-01T13:54:48.035Z,13.20
2017-11-01T13:57:14.814Z,13.00
2017-11-01T13:59:41.566Z,13.57
2017-11-01T14:02:08.295Z,10.95
2017-11-01T14:04:35.033Z,12.32
2017-11-01T14:07:01.759Z,12.48
2017-11-01T14:09:28.487Z,12.27
2017-11-01T14:11:55.234Z,11.07
2017-11-01T14:14:22.007Z,10.90
2017-11-01T14:16:48.748Z,11.65
2017-11-01T14:19:15.491Z,11.63
2017-11-01T14:21:42.230Z,10.65
2017-11-01T14:24:08.959Z,11.10
2017-11-01T14:26:35.698Z,11.30
2017-11-01T14:29:02.427Z,10.55
2017-11-01T14:31:29.150Z,11.05
2017-11-01T14:33:55.906Z,9.98
2017-11-01T14:36:22.639Z,11.20
2017-11-01T14:38:49.373Z,10.70
2017-11-01T14:41:16.114Z,10.93
2017-11-01T14:43:42.871Z,10.35
2017-11-01T14:46:09.611Z,10.80
2017-11-01T14:48:36.358Z,11.40
2017-11-01T14:51:04.716Z,10.35
2017-11-01T14:53:31.703Z,9.10
2017-11-01T14:55:58.479Z,10.75
2017-11-01T14:58:25.207Z,8.98
2017-11-01T15:00:53.055Z,8.85
2017-11-01T15:03:19.843Z,10.50
2017-11-01T15:05:46.568Z,9.63
2017-11-01T15:08:13.298Z,9.43
2017-11-01T15:10:40.040Z,9.10
2017-11-01T15:13:06.774Z,8.88
2017-11-01T15:15:33.542Z,9.95
2017-11-01T15:18:00.287Z,9.45
2017-11-01T15:20:27.727Z,8.90
2017-11-01T15:22:54.452Z,8.90
2017-11-01T15:25:21.536Z,9.65
2017-11-01T15:27:48.254Z,9.13
2017-11-01T15:30:15.005Z,8.23
2017-11-01T15:32:42.026Z,10.27
2017-11-01T15:35:09.592Z,9.48
2017-11-01T15:37:36.323Z,8.73
2017-11-01T15:40:03.075Z,8.30
2017-11-01T15:42:29.799Z,9.20
2017-11-01T15:44:56.526Z,8.55
2017-11-01T15:47:23.283Z,7.87
2017-11-01T15:49:49.999Z,9.20
2017-11-01T15:52:16.739Z,9.55
2017-11-01T15:54:43.496Z,8.88
2017-11-01T15:57:10.947Z,8.80
2017-11-01T15:59:37.971Z,9.88
2017-11-01T16:02:04.714Z,10.20
2017-11-01T16:04:31.506Z,9.80
2017-11-01T16:06:58.219Z,9.35
2017-11-01T16:09:24.960Z,8.43
2017-11-01T16:11:51.698Z,8.52
2017-11-01T16:14:18.463Z,9.15
2017-11-01T16:16:45.449Z,8.70
2017-11-01T16:19:12.431Z,8.80
2017-11-01T16:21:39.155Z,8.27
2017-11-01T16:24:06.187Z,9.70
2017-11-01T16:26:33.263Z,8.90
2017-11-01T16:28:59.983Z,9.13
2017-11-01T16:31:26.727Z,9.98
2017-11-01T16:33:53.455Z,9.23
2017-11-01T16:36:20.569Z,9.48
2017-11-01T16:38:47.338Z,9.55
2017-11-01T16:43:46.431Z,9.90
2017-11-01T16:46:18.544Z,11.50
2017-11-01T16:48:45.303Z,9.05
2017-11-01T16:51:12.041Z,10.05
2017-11-01T16:53:38.867Z,9.85
2017-11-01T16:56:06.335Z,9.65
2017-11-01T16:58:33.066Z,10.55
2017-11-01T17:00:59.803Z,10.20
2017-11-01T17:03:26.618Z,10.15
2017-11-01T17:05:53.685Z,11.35
2017-11-01T17:08:20.433Z,9.98
2017-11-01T17:10:47.202Z,10.23
2017-11-01T17:13:13.945Z,10.45
2017-11-01T17:15:40.707Z,10.30
2017-11-01T17:18:07.443Z,10.50
2017-11-01T17:20:34.203Z,11.90
2017-11-01T17:23:00.984Z,15.70
2017-11-01T17:25:28.001Z,15.13
2017-11-01T17:27:54.979Z,11.95
2017-11-01T17:30:22.456Z,16.98
2017-11-01T17:32:49.200Z,23.73
2017-11-01T17:35:15.962Z,20.55
2017-11-01T17:37:42.788Z,17.87
2017-11-01T17:40:09.956Z,19.35
2017-11-01T17:42:36.706Z,16.20
2017-11-01T17:45:03.563Z,14.50
2017-11-01T17:47:30.287Z,14.57
2017-11-01T17:49:57.013Z,13.25
2017-11-01T17:52:23.824Z,13.57
2017-11-01T17:57:25.024Z,9.40
2017-11-01T17:59:51.787Z,10.23
2017-11-01T18:04:53.068Z,10.45
2017-11-01T18:07:20.607Z,12.73
2017-11-01T18:12:23.601Z,11.77
2017-11-01T18:14:57.699Z,11.25
2017-11-01T18:17:28.103Z,10.93
2017-11-01T18:22:30.432Z,12.85
2017-11-01T18:25:03.488Z,12.63
2017-11-01T18:27:31.400Z,13.27
2017-11-01T18:29:58.611Z,13.23
2017-11-01T18:32:25.359Z,12.18
2017-11-01T18:34:54.723Z,12.60
2017-11-01T18:37:24.739Z,11.90
2017-11-01T18:42:24.868Z,13.43
2017-11-01T18:47:26.603Z,14.57
2017-11-01T18:52:27.974Z,13.73
2017-11-01T18:54:56.912Z,13.10
2017-11-01T18:57:24.371Z,13.57
2017-11-01T18:59:52.996Z,12.82
2017-11-01T19:02:23.911Z,13.52
2017-11-01T19:04:51.511Z,13.60
2017-11-01T19:07:24.112Z,11.93
2017-11-01T19:09:50.853Z,13.30
2017-11-01T19:12:18.691Z,10.77
2017-11-01T19:14:54.220Z,10.13
2017-11-01T19:17:20.969Z,11.75
2017-11-01T19:22:19.856Z,9.77
2017-11-01T19:34:57.983Z,10.65
2017-11-01T19:37:25.655Z,10.95
2017-11-01T19:39:59.247Z,9.27
2017-11-01T19:45:02.206Z,8.60
2017-11-01T19:47:31.535Z,8.38
2017-11-01T19:50:01.116Z,8.98
2017-11-01T19:52:27.867Z,9.35
2017-11-01T19:54:56.039Z,7.28
2017-11-01T19:57:25.794Z,8.07
2017-11-01T20:05:06.168Z,7.87
2017-11-01T20:07:34.787Z,7.60
2017-11-01T20:10:06.051Z,7.43
2017-11-01T20:12:34.774Z,6.80
2017-11-01T20:20:04.935Z,7.35
2017-11-01T20:25:09.580Z,6.72
2017-11-01T20:27:39.253Z,7.15
2017-11-01T20:30:09.503Z,6.72
2017-11-01T20:32:37.476Z,7.47
2017-11-01T20:35:05.548Z,7.87
2017-11-01T20:37:33.322Z,6.18
2017-11-01T20:40:00.044Z,5.95
2017-11-01T20:42:27.072Z,5.95
2017-11-01T20:44:56.678Z,5.35
2017-11-01T20:47:24.154Z,6.12
2017-11-01T20:49:51.805Z,7.15
2017-11-01T20:52:19.543Z,6.32
2017-11-01T20:54:46.696Z,6.62
2017-11-01T20:57:13.803Z,5.68
2017-11-01T20:59:40.679Z,6.40
2017-11-01T21:02:09.127Z,5.72
2017-11-01T21:04:40.066Z,5.82
2017-11-01T21:07:06.862Z,5.62
2017-11-01T21:09:33.926Z,5.53
2017-11-01T21:12:02.957Z,6.05
2017-11-01T21:14:31.772Z,5.93
2017-11-01T21:17:02.229Z,5.72
2017-11-01T21:19:29.125Z,5.15
2017-11-01T21:21:55.930Z,4.80
2017-11-01T21:24:23.144Z,5.80
2017-11-01T21:26:50.003Z,5.50
2017-11-01T21:29:16.836Z,6.10
2017-11-01T21:31:43.995Z,5.55
2017-11-01T21:34:11.499Z,4.87
2017-11-01T21:36:38.531Z,4.20
2017-11-01T21:39:06.272Z,4.10
2017-11-01T21:41:33.852Z,4.87
2017-11-01T21:44:03.224Z,4.35
2017-11-01T21:46:29.982Z,4.87
2017-11-01T21:48:56.743Z,4.97
2017-11-01T21:51:24.544Z,5.85
2017-11-01T21:53:51.680Z,4.18
2017-11-01T21:56:19.812Z,4.75
2017-11-01T21:58:49.205Z,4.28
2017-11-01T22:01:19.860Z,3.83
2017-11-01T22:03:46.685Z,4.20
2017-11-01T22:06:14.370Z,4.20
2017-11-01T22:08:42.316Z,4.62
2017-11-01T22:11:13.184Z,4.20
2017-11-01T22:13:40.476Z,3.72
2017-11-01T22:16:09.454Z,4.12
2017-11-01T22:18:37.346Z,4.22
2017-11-01T22:21:05.104Z,4.22
2017-11-01T22:23:31.879Z,3.95
2017-11-01T22:25:58.907Z,3.50
2017-11-01T22:28:27.043Z,3.70
2017-11-01T22:30:55.058Z,4.62
2017-11-01T22:33:24.000Z,3.83
2017-11-01T22:35:50.734Z,3.22
2017-11-01T22:38:21.100Z,3.92
2017-11-01T22:40:50.079Z,3.78
2017-11-01T22:43:17.679Z,3.55
2017-11-01T22:45:44.695Z,4.20
2017-11-01T22:48:14.934Z,4.20
2017-11-01T22:50:42.231Z,4.10
2017-11-01T22:53:09.476Z,4.40
2017-11-01T22:55:37.044Z,4.53
2017-11-01T22:58:07.529Z,4.05
2017-11-01T23:00:34.267Z,3.92
2017-11-01T23:03:01.753Z,3.62
2017-11-01T23:05:30.822Z,4.25
2017-11-01T23:07:58.163Z,4.03
2017-11-01T23:10:26.142Z,4.55
2017-11-01T23:12:53.577Z,4.53
2017-11-01T23:15:20.565Z,4.43
2017-11-01T23:17:51.103Z,4.95
2017-11-01T23:20:18.964Z,4.28
2017-11-01T23:22:46.440Z,4.87
2017-11-01T23:25:13.175Z,4.00
2017-11-01T23:27:40.962Z,3.90
2017-11-01T23:30:07.639Z,4.90
2017-11-01T23:32:34.323Z,4.00
2017-11-01T23:35:02.741Z,3.95
2017-11-01T23:37:29.696Z,4.15
2017-11-01T23:39:57.489Z,4.50
2017-11-01T23:42:24.217Z,4.15
2017-11-01T23:44:51.728Z,4.07
2017-11-01T23:47:19.291Z,4.22
2017-11-01T23:49:46.703Z,4.28
2017-11-01T23:52:13.644Z,3.70
2017-11-01T23:54:40.331Z,3.58
2017-11-01T23:57:08.100Z,3.35
2017-11-01T23:59:35.624Z,3.65
